sensor_id;sensor_type;location;lat;lon;timestamp;P1;durP1;ratioP1;P2;durP2;ratioP2
39454;SDS011;25155;41.890;23.446;2022-08-19T00:01:28;5.88;;;5.13;;
39454;SDS011;25155;41.890;23.446;2022-08-19T00:03:57;4.88;;;4.00;;
39454;SDS011;25155;41.890;23.446;2022-08-19T00:06:26;5.80;;;5.00;;
39454;SDS011;25155;41.890;23.446;2022-08-19T00:08:54;5.75;;;5.07;;
39454;SDS011;25155;41.890;23.446;2022-08-19T00:11:25;7.38;;;6.60;;
39454;SDS011;25155;41.890;23.446;2022-08-19T00:13:54;5.90;;;5.10;;
39454;SDS011;25155;41.890;23.446;2022-08-19T00:16:22;5.75;;;5.15;;
39454;SDS011;25155;41.890;23.446;2022-08-19T00:18:50;4.40;;;3.72;;
39454;SDS011;25155;41.890;23.446;2022-08-19T00:21:17;4.47;;;3.50;;
39454;SDS011;25155;41.890;23.446;2022-08-19T00:23:45;5.75;;;5.10;;
39454;SDS011;25155;41.890;23.446;2022-08-19T00:26:12;5.00;;;4.30;;
39454;SDS011;25155;41.890;23.446;2022-08-19T00:28:41;7.88;;;7.07;;
39454;SDS011;25155;41.890;23.446;2022-08-19T00:31:09;7.05;;;6.03;;
39454;SDS011;25155;41.890;23.446;2022-08-19T00:33:36;6.10;;;4.80;;
39454;SDS011;25155;41.890;23.446;2022-08-19T00:36:05;5.28;;;4.68;;
39454;SDS011;25155;41.890;23.446;2022-08-19T00:38:35;5.53;;;4.47;;
39454;SDS011;25155;41.890;23.446;2022-08-19T00:41:04;5.22;;;4.57;;
39454;SDS011;25155;41.890;23.446;2022-08-19T00:43:32;5.43;;;4.65;;
39454;SDS011;25155;41.890;23.446;2022-08-19T00:46:01;5.00;;;4.38;;
39454;SDS011;25155;41.890;23.446;2022-08-19T00:48:30;5.53;;;4.30;;
39454;SDS011;25155;41.890;23.446;2022-08-19T00:50:58;7.72;;;6.35;;
39454;SDS011;25155;41.890;23.446;2022-08-19T00:53:27;6.35;;;5.75;;
39454;SDS011;25155;41.890;23.446;2022-08-19T00:55:59;5.55;;;4.63;;
39454;SDS011;25155;41.890;23.446;2022-08-19T00:58:32;4.65;;;3.90;;
39454;SDS011;25155;41.890;23.446;2022-08-19T01:01:03;4.50;;;3.47;;
39454;SDS011;25155;41.890;23.446;2022-08-19T01:06:00;5.55;;;4.60;;
39454;SDS011;25155;41.890;23.446;2022-08-19T01:08:29;4.47;;;3.70;;
39454;SDS011;25155;41.890;23.446;2022-08-19T01:10:57;5.78;;;5.13;;
39454;SDS011;25155;41.890;23.446;2022-08-19T01:13:26;5.88;;;5.15;;
39454;SDS011;25155;41.890;23.446;2022-08-19T01:15:56;7.95;;;6.72;;
39454;SDS011;25155;41.890;23.446;2022-08-19T01:18:29;7.45;;;6.60;;
39454;SDS011;25155;41.890;23.446;2022-08-19T01:23:46;7.68;;;6.88;;
39454;SDS011;25155;41.890;23.446;2022-08-19T01:26:15;7.22;;;6.53;;
39454;SDS011;25155;41.890;23.446;2022-08-19T01:28:45;7.07;;;6.30;;
39454;SDS011;25155;41.890;23.446;2022-08-19T01:31:16;6.53;;;5.57;;
39454;SDS011;25155;41.890;23.446;2022-08-19T01:33:46;6.05;;;5.07;;
39454;SDS011;25155;41.890;23.446;2022-08-19T01:36:14;5.53;;;4.93;;
39454;SDS011;25155;41.890;23.446;2022-08-19T01:38:50;5.25;;;4.55;;
39454;SDS011;25155;41.890;23.446;2022-08-19T01:41:17;10.75;;;6.63;;
39454;SDS011;25155;41.890;23.446;2022-08-19T01:43:45;8.73;;;7.60;;
39454;SDS011;25155;41.890;23.446;2022-08-19T01:46:13;8.68;;;7.45;;
39454;SDS011;25155;41.890;23.446;2022-08-19T01:48:40;9.05;;;6.63;;
39454;SDS011;25155;41.890;23.446;2022-08-19T01:51:09;6.80;;;5.93;;
39454;SDS011;25155;41.890;23.446;2022-08-19T01:53:37;6.00;;;4.80;;
39454;SDS011;25155;41.890;23.446;2022-08-19T01:56:07;5.03;;;3.92;;
39454;SDS011;25155;41.890;23.446;2022-08-19T01:58:36;4.65;;;3.80;;
39454;SDS011;25155;41.890;23.446;2022-08-19T02:01:06;4.35;;;3.63;;
39454;SDS011;25155;41.890;23.446;2022-08-19T02:03:34;4.22;;;3.38;;
39454;SDS011;25155;41.890;23.446;2022-08-19T02:06:02;5.50;;;4.15;;
39454;SDS011;25155;41.890;23.446;2022-08-19T02:08:32;7.85;;;5.35;;
39454;SDS011;25155;41.890;23.446;2022-08-19T02:11:03;6.57;;;5.47;;
39454;SDS011;25155;41.890;23.446;2022-08-19T02:13:33;5.45;;;4.63;;
39454;SDS011;25155;41.890;23.446;2022-08-19T02:16:02;4.82;;;4.03;;
39454;SDS011;25155;41.890;23.446;2022-08-19T02:18:29;4.95;;;3.88;;
39454;SDS011;25155;41.890;23.446;2022-08-19T02:20:57;4.53;;;3.70;;
39454;SDS011;25155;41.890;23.446;2022-08-19T02:23:24;4.28;;;3.55;;
39454;SDS011;25155;41.890;23.446;2022-08-19T02:25:53;4.00;;;3.30;;
39454;SDS011;25155;41.890;23.446;2022-08-19T02:28:21;5.35;;;4.32;;
39454;SDS011;25155;41.890;23.446;2022-08-19T02:30:51;6.95;;;6.10;;
39454;SDS011;25155;41.890;23.446;2022-08-19T02:33:18;5.93;;;4.95;;
39454;SDS011;25155;41.890;23.446;2022-08-19T02:35:46;5.20;;;4.30;;
39454;SDS011;25155;41.890;23.446;2022-08-19T02:38:14;6.68;;;4.57;;
39454;SDS011;25155;41.890;23.446;2022-08-19T02:40:55;5.05;;;4.13;;
39454;SDS011;25155;41.890;23.446;2022-08-19T02:43:24;4.53;;;3.78;;
39454;SDS011;25155;41.890;23.446;2022-08-19T02:45:54;6.82;;;4.53;;
39454;SDS011;25155;41.890;23.446;2022-08-19T02:48:23;5.47;;;4.38;;
39454;SDS011;25155;41.890;23.446;2022-08-19T02:50:52;4.88;;;4.32;;
39454;SDS011;25155;41.890;23.446;2022-08-19T02:53:21;5.43;;;4.60;;
39454;SDS011;25155;41.890;23.446;2022-08-19T02:55:50;4.68;;;3.80;;
39454;SDS011;25155;41.890;23.446;2022-08-19T02:58:20;7.47;;;5.15;;
39454;SDS011;25155;41.890;23.446;2022-08-19T03:00:49;7.85;;;6.28;;
39454;SDS011;25155;41.890;23.446;2022-08-19T03:03:19;7.05;;;5.25;;
39454;SDS011;25155;41.890;23.446;2022-08-19T03:05:47;6.57;;;4.57;;
39454;SDS011;25155;41.890;23.446;2022-08-19T03:08:15;6.97;;;5.90;;
39454;SDS011;25155;41.890;23.446;2022-08-19T03:10:43;7.35;;;6.05;;
39454;SDS011;25155;41.890;23.446;2022-08-19T03:13:13;6.13;;;4.97;;
39454;SDS011;25155;41.890;23.446;2022-08-19T03:15:43;4.72;;;3.92;;
39454;SDS011;25155;41.890;23.446;2022-08-19T03:18:14;5.32;;;4.22;;
39454;SDS011;25155;41.890;23.446;2022-08-19T03:20:44;4.90;;;3.88;;
39454;SDS011;25155;41.890;23.446;2022-08-19T03:23:14;5.07;;;4.15;;
39454;SDS011;25155;41.890;23.446;2022-08-19T03:25:43;4.20;;;3.38;;
39454;SDS011;25155;41.890;23.446;2022-08-19T03:28:13;6.13;;;5.05;;
39454;SDS011;25155;41.890;23.446;2022-08-19T03:30:42;4.93;;;4.20;;
39454;SDS011;25155;41.890;23.446;2022-08-19T03:33:22;4.95;;;3.80;;
39454;SDS011;25155;41.890;23.446;2022-08-19T03:36:00;5.00;;;4.07;;
39454;SDS011;25155;41.890;23.446;2022-08-19T03:38:31;4.72;;;3.85;;
39454;SDS011;25155;41.890;23.446;2022-08-19T03:41:02;5.65;;;4.00;;
39454;SDS011;25155;41.890;23.446;2022-08-19T03:43:32;5.20;;;4.40;;
39454;SDS011;25155;41.890;23.446;2022-08-19T03:46:01;5.07;;;4.43;;
39454;SDS011;25155;41.890;23.446;2022-08-19T03:48:30;5.97;;;5.22;;
39454;SDS011;25155;41.890;23.446;2022-08-19T03:50:58;7.90;;;6.80;;
39454;SDS011;25155;41.890;23.446;2022-08-19T03:53:28;6.90;;;5.72;;
39454;SDS011;25155;41.890;23.446;2022-08-19T03:55:56;7.97;;;6.95;;
39454;SDS011;25155;41.890;23.446;2022-08-19T03:58:26;6.65;;;5.88;;
39454;SDS011;25155;41.890;23.446;2022-08-19T04:00:55;6.20;;;5.30;;
39454;SDS011;25155;41.890;23.446;2022-08-19T04:03:23;5.82;;;5.05;;
39454;SDS011;25155;41.890;23.446;2022-08-19T04:05:51;7.45;;;6.40;;
39454;SDS011;25155;41.890;23.446;2022-08-19T04:08:21;9.95;;;8.95;;
39454;SDS011;25155;41.890;23.446;2022-08-19T04:10:49;7.75;;;6.95;;
39454;SDS011;25155;41.890;23.446;2022-08-19T04:13:17;6.70;;;6.00;;
39454;SDS011;25155;41.890;23.446;2022-08-19T04:15:45;5.60;;;4.97;;
39454;SDS011;25155;41.890;23.446;2022-08-19T04:18:13;6.07;;;5.30;;
39454;SDS011;25155;41.890;23.446;2022-08-19T04:20:45;7.60;;;6.20;;
39454;SDS011;25155;41.890;23.446;2022-08-19T04:23:14;10.90;;;9.80;;
39454;SDS011;25155;41.890;23.446;2022-08-19T04:25:43;11.55;;;10.35;;
39454;SDS011;25155;41.890;23.446;2022-08-19T04:28:11;9.40;;;8.50;;
39454;SDS011;25155;41.890;23.446;2022-08-19T04:30:42;10.52;;;9.43;;
39454;SDS011;25155;41.890;23.446;2022-08-19T04:33:11;11.38;;;10.18;;
39454;SDS011;25155;41.890;23.446;2022-08-19T04:35:41;9.43;;;8.52;;
39454;SDS011;25155;41.890;23.446;2022-08-19T04:40:40;8.00;;;7.20;;
39454;SDS011;25155;41.890;23.446;2022-08-19T04:43:27;10.32;;;8.07;;
39454;SDS011;25155;41.890;23.446;2022-08-19T04:45:55;7.65;;;6.85;;
39454;SDS011;25155;41.890;23.446;2022-08-19T04:48:23;7.68;;;6.97;;
39454;SDS011;25155;41.890;23.446;2022-08-19T04:50:52;8.98;;;8.07;;
39454;SDS011;25155;41.890;23.446;2022-08-19T04:55:54;12.55;;;11.35;;
39454;SDS011;25155;41.890;23.446;2022-08-19T04:58:23;12.45;;;11.15;;
39454;SDS011;25155;41.890;23.446;2022-08-19T05:00:52;11.93;;;10.73;;
39454;SDS011;25155;41.890;23.446;2022-08-19T05:03:20;10.98;;;9.88;;
39454;SDS011;25155;41.890;23.446;2022-08-19T05:05:48;11.02;;;9.93;;
39454;SDS011;25155;41.890;23.446;2022-08-19T05:08:16;11.07;;;9.98;;
39454;SDS011;25155;41.890;23.446;2022-08-19T05:10:46;9.25;;;8.35;;
39454;SDS011;25155;41.890;23.446;2022-08-19T05:13:15;11.90;;;10.55;;
39454;SDS011;25155;41.890;23.446;2022-08-19T05:15:44;10.90;;;9.80;;
39454;SDS011;25155;41.890;23.446;2022-08-19T05:18:21;10.30;;;9.20;;
39454;SDS011;25155;41.890;23.446;2022-08-19T05:21:06;11.10;;;9.55;;
39454;SDS011;25155;41.890;23.446;2022-08-19T05:23:51;13.05;;;10.82;;
39454;SDS011;25155;41.890;23.446;2022-08-19T05:26:18;11.43;;;10.23;;
39454;SDS011;25155;41.890;23.446;2022-08-19T05:28:46;11.40;;;10.30;;
39454;SDS011;25155;41.890;23.446;2022-08-19T05:31:13;12.57;;;11.27;;
39454;SDS011;25155;41.890;23.446;2022-08-19T05:33:42;11.52;;;10.32;;
39454;SDS011;25155;41.890;23.446;2022-08-19T05:36:09;14.55;;;12.23;;
39454;SDS011;25155;41.890;23.446;2022-08-19T05:38:37;18.08;;;15.88;;
39454;SDS011;25155;41.890;23.446;2022-08-19T05:41:06;17.98;;;16.17;;
39454;SDS011;25155;41.890;23.446;2022-08-19T05:43:35;18.45;;;16.55;;
39454;SDS011;25155;41.890;23.446;2022-08-19T05:46:03;23.73;;;21.42;;
39454;SDS011;25155;41.890;23.446;2022-08-19T05:48:31;26.58;;;23.88;;
39454;SDS011;25155;41.890;23.446;2022-08-19T05:51:04;20.20;;;18.20;;
39454;SDS011;25155;41.890;23.446;2022-08-19T05:53:33;19.80;;;17.90;;
39454;SDS011;25155;41.890;23.446;2022-08-19T05:56:04;26.55;;;24.02;;
39454;SDS011;25155;41.890;23.446;2022-08-19T05:58:33;29.95;;;26.95;;
39454;SDS011;25155;41.890;23.446;2022-08-19T06:01:01;29.15;;;26.45;;
39454;SDS011;25155;41.890;23.446;2022-08-19T06:03:31;27.10;;;24.33;;
39454;SDS011;25155;41.890;23.446;2022-08-19T06:06:00;26.52;;;24.05;;
39454;SDS011;25155;41.890;23.446;2022-08-19T06:08:29;23.17;;;20.98;;
39454;SDS011;25155;41.890;23.446;2022-08-19T06:10:58;27.08;;;24.38;;
39454;SDS011;25155;41.890;23.446;2022-08-19T06:13:40;26.98;;;24.38;;
39454;SDS011;25155;41.890;23.446;2022-08-19T06:16:07;23.60;;;21.33;;
39454;SDS011;25155;41.890;23.446;2022-08-19T06:18:34;26.85;;;24.35;;
39454;SDS011;25155;41.890;23.446;2022-08-19T06:21:02;24.42;;;21.98;;
39454;SDS011;25155;41.890;23.446;2022-08-19T06:23:31;20.77;;;18.67;;
39454;SDS011;25155;41.890;23.446;2022-08-19T06:25:59;20.17;;;18.15;;
39454;SDS011;25155;41.890;23.446;2022-08-19T06:28:26;13.68;;;12.38;;
39454;SDS011;25155;41.890;23.446;2022-08-19T06:30:55;15.68;;;14.27;;
39454;SDS011;25155;41.890;23.446;2022-08-19T06:33:22;18.95;;;17.15;;
39454;SDS011;25155;41.890;23.446;2022-08-19T06:35:50;17.75;;;16.15;;
39454;SDS011;25155;41.890;23.446;2022-08-19T06:38:17;19.88;;;17.90;;
39454;SDS011;25155;41.890;23.446;2022-08-19T06:40:50;20.45;;;18.45;;
39454;SDS011;25155;41.890;23.446;2022-08-19T06:43:17;18.45;;;16.70;;
39454;SDS011;25155;41.890;23.446;2022-08-19T06:45:45;20.95;;;18.80;;
39454;SDS011;25155;41.890;23.446;2022-08-19T06:48:13;20.60;;;18.63;;
39454;SDS011;25155;41.890;23.446;2022-08-19T06:50:40;21.60;;;19.40;;
39454;SDS011;25155;41.890;23.446;2022-08-19T06:53:08;23.67;;;21.42;;
39454;SDS011;25155;41.890;23.446;2022-08-19T06:55:35;19.88;;;17.88;;
39454;SDS011;25155;41.890;23.446;2022-08-19T06:58:05;20.13;;;18.27;;
39454;SDS011;25155;41.890;23.446;2022-08-19T07:00:33;19.27;;;17.27;;
39454;SDS011;25155;41.890;23.446;2022-08-19T07:03:00;21.13;;;19.13;;
39454;SDS011;25155;41.890;23.446;2022-08-19T07:05:28;19.35;;;17.45;;
39454;SDS011;25155;41.890;23.446;2022-08-19T07:07:55;17.55;;;15.95;;
39454;SDS011;25155;41.890;23.446;2022-08-19T07:10:23;12.55;;;11.43;;
39454;SDS011;25155;41.890;23.446;2022-08-19T07:12:51;15.43;;;14.00;;
39454;SDS011;25155;41.890;23.446;2022-08-19T07:15:20;20.70;;;18.70;;
39454;SDS011;25155;41.890;23.446;2022-08-19T07:17:48;18.60;;;16.90;;
39454;SDS011;25155;41.890;23.446;2022-08-19T07:20:17;15.73;;;14.20;;
39454;SDS011;25155;41.890;23.446;2022-08-19T07:22:44;15.82;;;14.27;;
39454;SDS011;25155;41.890;23.446;2022-08-19T07:25:12;18.30;;;16.52;;
39454;SDS011;25155;41.890;23.446;2022-08-19T07:27:42;17.55;;;15.85;;
39454;SDS011;25155;41.890;23.446;2022-08-19T07:30:10;17.75;;;15.85;;
39454;SDS011;25155;41.890;23.446;2022-08-19T07:32:40;15.20;;;13.18;;
39454;SDS011;25155;41.890;23.446;2022-08-19T07:35:08;16.15;;;14.52;;
39454;SDS011;25155;41.890;23.446;2022-08-19T07:37:36;12.00;;;10.70;;
39454;SDS011;25155;41.890;23.446;2022-08-19T07:40:09;21.60;;;18.42;;
39454;SDS011;25155;41.890;23.446;2022-08-19T07:42:39;22.05;;;19.85;;
39454;SDS011;25155;41.890;23.446;2022-08-19T07:45:07;20.08;;;18.17;;
39454;SDS011;25155;41.890;23.446;2022-08-19T07:47:35;14.60;;;12.60;;
39454;SDS011;25155;41.890;23.446;2022-08-19T07:50:05;11.75;;;10.52;;
39454;SDS011;25155;41.890;23.446;2022-08-19T07:52:36;13.93;;;10.88;;
39454;SDS011;25155;41.890;23.446;2022-08-19T07:55:05;11.15;;;9.93;;
39454;SDS011;25155;41.890;23.446;2022-08-19T07:57:35;10.38;;;9.27;;
39454;SDS011;25155;41.890;23.446;2022-08-19T08:00:04;11.68;;;10.48;;
39454;SDS011;25155;41.890;23.446;2022-08-19T08:02:33;12.10;;;10.25;;
39454;SDS011;25155;41.890;23.446;2022-08-19T08:05:01;11.18;;;10.15;;
39454;SDS011;25155;41.890;23.446;2022-08-19T08:07:47;9.35;;;8.38;;
39454;SDS011;25155;41.890;23.446;2022-08-19T08:10:33;9.63;;;7.60;;
39454;SDS011;25155;41.890;23.446;2022-08-19T08:13:00;12.20;;;10.38;;
39454;SDS011;25155;41.890;23.446;2022-08-19T08:15:30;10.98;;;8.82;;
39454;SDS011;25155;41.890;23.446;2022-08-19T08:17:58;10.13;;;9.07;;
39454;SDS011;25155;41.890;23.446;2022-08-19T08:20:25;8.63;;;7.78;;
39454;SDS011;25155;41.890;23.446;2022-08-19T08:22:54;8.18;;;6.28;;
39454;SDS011;25155;41.890;23.446;2022-08-19T08:25:38;5.60;;;5.00;;
39454;SDS011;25155;41.890;23.446;2022-08-19T08:28:06;7.60;;;5.57;;
39454;SDS011;25155;41.890;23.446;2022-08-19T08:30:34;7.07;;;5.70;;
39454;SDS011;25155;41.890;23.446;2022-08-19T08:33:03;6.60;;;5.50;;
39454;SDS011;25155;41.890;23.446;2022-08-19T08:35:31;6.25;;;5.28;;
39454;SDS011;25155;41.890;23.446;2022-08-19T08:38:00;5.53;;;4.47;;
39454;SDS011;25155;41.890;23.446;2022-08-19T08:43:02;5.50;;;3.88;;
39454;SDS011;25155;41.890;23.446;2022-08-19T08:45:34;5.78;;;4.18;;
39454;SDS011;25155;41.890;23.446;2022-08-19T08:48:16;5.05;;;3.83;;
39454;SDS011;25155;41.890;23.446;2022-08-19T08:50:47;4.75;;;3.70;;
39454;SDS011;25155;41.890;23.446;2022-08-19T08:53:19;16.05;;;4.82;;
39454;SDS011;25155;41.890;23.446;2022-08-19T08:55:48;6.00;;;3.90;;
39454;SDS011;25155;41.890;23.446;2022-08-19T08:58:17;4.80;;;3.78;;
39454;SDS011;25155;41.890;23.446;2022-08-19T09:00:50;6.32;;;4.43;;
39454;SDS011;25155;41.890;23.446;2022-08-19T09:03:19;5.82;;;4.03;;
39454;SDS011;25155;41.890;23.446;2022-08-19T09:05:50;5.40;;;3.80;;
39454;SDS011;25155;41.890;23.446;2022-08-19T09:08:28;4.78;;;3.55;;
39454;SDS011;25155;41.890;23.446;2022-08-19T09:11:03;5.82;;;3.80;;
39454;SDS011;25155;41.890;23.446;2022-08-19T09:13:41;5.05;;;3.60;;
39454;SDS011;25155;41.890;23.446;2022-08-19T09:16:17;4.90;;;3.70;;
39454;SDS011;25155;41.890;23.446;2022-08-19T09:18:50;7.20;;;3.53;;
39454;SDS011;25155;41.890;23.446;2022-08-19T09:21:20;6.13;;;3.30;;
39454;SDS011;25155;41.890;23.446;2022-08-19T09:23:50;4.18;;;3.20;;
39454;SDS011;25155;41.890;23.446;2022-08-19T09:26:19;4.88;;;3.35;;
39454;SDS011;25155;41.890;23.446;2022-08-19T09:28:49;6.38;;;3.30;;
39454;SDS011;25155;41.890;23.446;2022-08-19T09:31:19;4.20;;;3.08;;
39454;SDS011;25155;41.890;23.446;2022-08-19T09:33:48;5.38;;;3.55;;
39454;SDS011;25155;41.890;23.446;2022-08-19T09:36:17;4.85;;;3.55;;
39454;SDS011;25155;41.890;23.446;2022-08-19T09:38:47;5.95;;;3.50;;
39454;SDS011;25155;41.890;23.446;2022-08-19T09:41:17;5.07;;;3.08;;
39454;SDS011;25155;41.890;23.446;2022-08-19T09:43:47;4.88;;;2.90;;
39454;SDS011;25155;41.890;23.446;2022-08-19T09:46:21;5.28;;;3.40;;
39454;SDS011;25155;41.890;23.446;2022-08-19T09:48:49;4.10;;;3.05;;
39454;SDS011;25155;41.890;23.446;2022-08-19T09:51:19;4.82;;;3.00;;
39454;SDS011;25155;41.890;23.446;2022-08-19T09:53:49;4.85;;;2.97;;
39454;SDS011;25155;41.890;23.446;2022-08-19T09:58:48;4.00;;;3.03;;
39454;SDS011;25155;41.890;23.446;2022-08-19T10:01:16;4.65;;;3.05;;
39454;SDS011;25155;41.890;23.446;2022-08-19T10:03:46;4.00;;;2.70;;
39454;SDS011;25155;41.890;23.446;2022-08-19T10:06:16;4.97;;;2.90;;
39454;SDS011;25155;41.890;23.446;2022-08-19T10:08:44;5.35;;;3.03;;
39454;SDS011;25155;41.890;23.446;2022-08-19T10:11:12;4.70;;;2.88;;
39454;SDS011;25155;41.890;23.446;2022-08-19T10:13:43;5.72;;;2.88;;
39454;SDS011;25155;41.890;23.446;2022-08-19T10:16:13;4.65;;;2.97;;
39454;SDS011;25155;41.890;23.446;2022-08-19T10:18:41;5.05;;;3.40;;
39454;SDS011;25155;41.890;23.446;2022-08-19T10:21:10;4.65;;;2.90;;
39454;SDS011;25155;41.890;23.446;2022-08-19T10:23:39;4.25;;;2.97;;
39454;SDS011;25155;41.890;23.446;2022-08-19T10:26:11;4.00;;;2.97;;
39454;SDS011;25155;41.890;23.446;2022-08-19T10:28:40;6.97;;;4.00;;
39454;SDS011;25155;41.890;23.446;2022-08-19T10:31:10;7.00;;;4.13;;
39454;SDS011;25155;41.890;23.446;2022-08-19T10:33:40;4.93;;;3.53;;
39454;SDS011;25155;41.890;23.446;2022-08-19T10:36:09;4.82;;;3.53;;
39454;SDS011;25155;41.890;23.446;2022-08-19T10:38:40;6.65;;;3.50;;
39454;SDS011;25155;41.890;23.446;2022-08-19T10:41:09;6.57;;;3.90;;
39454;SDS011;25155;41.890;23.446;2022-08-19T10:43:37;8.77;;;4.00;;
39454;SDS011;25155;41.890;23.446;2022-08-19T10:46:06;5.50;;;3.92;;
39454;SDS011;25155;41.890;23.446;2022-08-19T10:48:36;6.40;;;3.65;;
39454;SDS011;25155;41.890;23.446;2022-08-19T10:51:04;7.25;;;3.78;;
39454;SDS011;25155;41.890;23.446;2022-08-19T10:53:48;7.50;;;3.78;;
39454;SDS011;25155;41.890;23.446;2022-08-19T10:56:16;4.65;;;3.00;;
39454;SDS011;25155;41.890;23.446;2022-08-19T10:59:02;5.55;;;3.45;;
39454;SDS011;25155;41.890;23.446;2022-08-19T11:01:30;5.60;;;3.67;;
39454;SDS011;25155;41.890;23.446;2022-08-19T11:04:02;4.93;;;3.30;;
39454;SDS011;25155;41.890;23.446;2022-08-19T11:06:33;9.48;;;3.53;;
39454;SDS011;25155;41.890;23.446;2022-08-19T11:09:01;5.45;;;3.70;;
39454;SDS011;25155;41.890;23.446;2022-08-19T11:11:30;5.95;;;3.72;;
39454;SDS011;25155;41.890;23.446;2022-08-19T11:14:04;9.13;;;4.00;;
39454;SDS011;25155;41.890;23.446;2022-08-19T11:16:33;7.22;;;3.80;;
39454;SDS011;25155;41.890;23.446;2022-08-19T11:19:03;5.70;;;3.50;;
39454;SDS011;25155;41.890;23.446;2022-08-19T11:21:32;4.85;;;3.63;;
39454;SDS011;25155;41.890;23.446;2022-08-19T11:26:31;6.85;;;3.20;;
39454;SDS011;25155;41.890;23.446;2022-08-19T11:29:00;5.00;;;3.40;;
39454;SDS011;25155;41.890;23.446;2022-08-19T11:31:29;4.93;;;3.47;;
39454;SDS011;25155;41.890;23.446;2022-08-19T11:33:58;6.65;;;3.47;;
39454;SDS011;25155;41.890;23.446;2022-08-19T11:36:28;9.80;;;3.90;;
39454;SDS011;25155;41.890;23.446;2022-08-19T11:38:57;7.13;;;3.80;;
39454;SDS011;25155;41.890;23.446;2022-08-19T11:41:25;6.82;;;3.42;;
39454;SDS011;25155;41.890;23.446;2022-08-19T11:43:53;4.72;;;2.90;;
39454;SDS011;25155;41.890;23.446;2022-08-19T11:46:21;6.43;;;3.55;;
39454;SDS011;25155;41.890;23.446;2022-08-19T11:48:51;51.87;;;6.83;;
39454;SDS011;25155;41.890;23.446;2022-08-19T11:51:21;7.07;;;3.90;;
39454;SDS011;25155;41.890;23.446;2022-08-19T11:56:19;6.65;;;3.78;;
39454;SDS011;25155;41.890;23.446;2022-08-19T11:58:47;6.65;;;3.80;;
39454;SDS011;25155;41.890;23.446;2022-08-19T12:01:16;9.77;;;3.75;;
39454;SDS011;25155;41.890;23.446;2022-08-19T12:03:45;6.13;;;3.47;;
39454;SDS011;25155;41.890;23.446;2022-08-19T12:06:14;6.65;;;3.60;;
39454;SDS011;25155;41.890;23.446;2022-08-19T12:08:45;6.03;;;3.72;;
39454;SDS011;25155;41.890;23.446;2022-08-19T12:11:15;6.45;;;3.75;;
39454;SDS011;25155;41.890;23.446;2022-08-19T12:13:43;9.82;;;4.32;;
39454;SDS011;25155;41.890;23.446;2022-08-19T12:16:11;5.97;;;3.67;;
39454;SDS011;25155;41.890;23.446;2022-08-19T12:18:41;11.07;;;4.20;;
39454;SDS011;25155;41.890;23.446;2022-08-19T12:21:11;9.77;;;3.50;;
39454;SDS011;25155;41.890;23.446;2022-08-19T12:23:39;7.30;;;3.95;;
39454;SDS011;25155;41.890;23.446;2022-08-19T12:26:08;7.82;;;3.58;;
39454;SDS011;25155;41.890;23.446;2022-08-19T12:28:38;7.53;;;3.58;;
39454;SDS011;25155;41.890;23.446;2022-08-19T12:31:06;7.90;;;3.90;;
39454;SDS011;25155;41.890;23.446;2022-08-19T12:36:05;4.90;;;3.03;;
39454;SDS011;25155;41.890;23.446;2022-08-19T12:38:34;8.85;;;3.63;;
39454;SDS011;25155;41.890;23.446;2022-08-19T12:41:02;9.52;;;3.72;;
39454;SDS011;25155;41.890;23.446;2022-08-19T12:43:32;6.30;;;3.73;;
39454;SDS011;25155;41.890;23.446;2022-08-19T12:46:02;12.00;;;3.92;;
39454;SDS011;25155;41.890;23.446;2022-08-19T12:48:29;8.75;;;3.88;;
39454;SDS011;25155;41.890;23.446;2022-08-19T12:50:57;12.75;;;4.25;;
39454;SDS011;25155;41.890;23.446;2022-08-19T12:53:25;8.20;;;4.38;;
39454;SDS011;25155;41.890;23.446;2022-08-19T12:55:54;9.65;;;4.03;;
39454;SDS011;25155;41.890;23.446;2022-08-19T12:58:22;6.35;;;3.63;;
39454;SDS011;25155;41.890;23.446;2022-08-19T13:00:50;8.10;;;4.22;;
39454;SDS011;25155;41.890;23.446;2022-08-19T13:03:19;6.03;;;3.80;;
39454;SDS011;25155;41.890;23.446;2022-08-19T13:05:47;7.68;;;4.10;;
39454;SDS011;25155;41.890;23.446;2022-08-19T13:08:17;7.35;;;3.70;;
39454;SDS011;25155;41.890;23.446;2022-08-19T13:10:44;6.88;;;4.07;;
39454;SDS011;25155;41.890;23.446;2022-08-19T13:13:12;9.15;;;3.95;;
39454;SDS011;25155;41.890;23.446;2022-08-19T13:15:40;8.00;;;3.85;;
39454;SDS011;25155;41.890;23.446;2022-08-19T13:18:10;9.23;;;3.90;;
39454;SDS011;25155;41.890;23.446;2022-08-19T13:20:40;8.65;;;3.88;;
39454;SDS011;25155;41.890;23.446;2022-08-19T13:23:08;8.10;;;3.70;;
39454;SDS011;25155;41.890;23.446;2022-08-19T13:25:36;10.35;;;4.05;;
39454;SDS011;25155;41.890;23.446;2022-08-19T13:28:04;6.03;;;3.83;;
39454;SDS011;25155;41.890;23.446;2022-08-19T13:30:33;7.97;;;3.70;;
39454;SDS011;25155;41.890;23.446;2022-08-19T13:33:18;6.78;;;3.85;;
39454;SDS011;25155;41.890;23.446;2022-08-19T13:35:48;10.70;;;4.20;;
39454;SDS011;25155;41.890;23.446;2022-08-19T13:38:21;8.60;;;4.22;;
39454;SDS011;25155;41.890;23.446;2022-08-19T13:40:50;7.60;;;4.05;;
39454;SDS011;25155;41.890;23.446;2022-08-19T13:43:19;7.13;;;3.33;;
39454;SDS011;25155;41.890;23.446;2022-08-19T13:45:48;8.18;;;4.22;;
39454;SDS011;25155;41.890;23.446;2022-08-19T13:48:18;7.70;;;4.05;;
39454;SDS011;25155;41.890;23.446;2022-08-19T13:50:47;6.25;;;3.65;;
39454;SDS011;25155;41.890;23.446;2022-08-19T13:53:14;7.35;;;3.80;;
39454;SDS011;25155;41.890;23.446;2022-08-19T13:55:43;6.13;;;3.80;;
39454;SDS011;25155;41.890;23.446;2022-08-19T13:58:11;9.10;;;4.30;;
39454;SDS011;25155;41.890;23.446;2022-08-19T14:00:39;7.78;;;3.95;;
39454;SDS011;25155;41.890;23.446;2022-08-19T14:03:10;5.10;;;3.72;;
39454;SDS011;25155;41.890;23.446;2022-08-19T14:05:39;6.38;;;3.88;;
39454;SDS011;25155;41.890;23.446;2022-08-19T14:08:07;10.35;;;4.10;;
39454;SDS011;25155;41.890;23.446;2022-08-19T14:10:39;10.65;;;3.83;;
39454;SDS011;25155;41.890;23.446;2022-08-19T14:13:09;6.47;;;3.85;;
39454;SDS011;25155;41.890;23.446;2022-08-19T14:15:40;6.00;;;3.58;;
39454;SDS011;25155;41.890;23.446;2022-08-19T14:18:07;11.23;;;4.22;;
39454;SDS011;25155;41.890;23.446;2022-08-19T14:20:35;6.30;;;3.50;;
39454;SDS011;25155;41.890;23.446;2022-08-19T14:23:03;7.78;;;3.58;;
39454;SDS011;25155;41.890;23.446;2022-08-19T14:25:33;6.88;;;4.18;;
39454;SDS011;25155;41.890;23.446;2022-08-19T14:28:00;8.65;;;3.42;;
39454;SDS011;25155;41.890;23.446;2022-08-19T14:30:29;6.93;;;3.55;;
39454;SDS011;25155;41.890;23.446;2022-08-19T14:32:59;6.45;;;3.17;;
39454;SDS011;25155;41.890;23.446;2022-08-19T14:35:28;7.32;;;3.83;;
39454;SDS011;25155;41.890;23.446;2022-08-19T14:37:58;5.97;;;3.20;;
39454;SDS011;25155;41.890;23.446;2022-08-19T14:40:26;8.00;;;3.80;;
39454;SDS011;25155;41.890;23.446;2022-08-19T14:42:58;9.27;;;3.90;;
39454;SDS011;25155;41.890;23.446;2022-08-19T14:45:30;8.00;;;3.70;;
39454;SDS011;25155;41.890;23.446;2022-08-19T14:47:58;8.02;;;3.90;;
39454;SDS011;25155;41.890;23.446;2022-08-19T14:50:26;9.43;;;4.90;;
39454;SDS011;25155;41.890;23.446;2022-08-19T14:52:58;7.15;;;3.90;;
39454;SDS011;25155;41.890;23.446;2022-08-19T14:55:26;7.50;;;4.00;;
39454;SDS011;25155;41.890;23.446;2022-08-19T14:57:54;7.07;;;3.78;;
39454;SDS011;25155;41.890;23.446;2022-08-19T15:00:24;8.90;;;4.13;;
39454;SDS011;25155;41.890;23.446;2022-08-19T15:02:52;8.85;;;3.72;;
39454;SDS011;25155;41.890;23.446;2022-08-19T15:05:19;6.13;;;3.60;;